createdAt,value
2023-03-08T00:02:07.190Z,7.80
2023-03-08T00:04:34.821Z,7.80
2023-03-08T00:07:01.954Z,7.67
2023-03-08T00:09:29.202Z,6.93
2023-03-08T00:11:56.349Z,7.20
2023-03-08T00:14:23.438Z,7.97
2023-03-08T00:16:50.623Z,7.70
2023-03-08T00:19:17.788Z,7.63
2023-03-08T00:21:44.885Z,7.00
2023-03-08T00:24:16.631Z,6.67
2023-03-08T00:26:44.145Z,7.70
2023-03-08T00:29:11.328Z,7.90
2023-03-08T00:31:38.564Z,7.33
2023-03-08T00:34:05.936Z,7.80
2023-03-08T00:36:33.058Z,7.50
2023-03-08T00:39:00.199Z,7.03
2023-03-08T00:41:27.322Z,7.43
2023-03-08T00:43:54.499Z,7.30
2023-03-08T00:46:21.823Z,7.10
2023-03-08T00:48:49.076Z,7.30
2023-03-08T00:51:17.044Z,7.80
2023-03-08T00:53:44.302Z,8.00
2023-03-08T00:56:11.667Z,7.97
2023-03-08T00:58:39.642Z,7.23
2023-03-08T01:01:07.878Z,8.03
2023-03-08T01:03:35.192Z,7.17
2023-03-08T01:06:06.707Z,7.30
2023-03-08T01:08:33.845Z,7.57
2023-03-08T01:11:01.145Z,8.07
2023-03-08T01:13:32.854Z,7.40
2023-03-08T01:16:00.468Z,7.13
2023-03-08T01:18:27.853Z,7.30
2023-03-08T01:20:59.628Z,7.00
2023-03-08T01:23:26.750Z,7.00
2023-03-08T01:26:07.720Z,7.40
2023-03-08T01:28:35.421Z,7.20
2023-03-08T01:31:03.853Z,6.73
2023-03-08T01:33:30.990Z,7.23
2023-03-08T01:35:58.200Z,7.20
2023-03-08T01:38:25.344Z,6.73
2023-03-08T01:40:56.714Z,6.97
2023-03-08T01:43:25.078Z,7.40
2023-03-08T01:46:01.381Z,7.20
2023-03-08T01:48:32.297Z,6.80
2023-03-08T01:51:00.533Z,6.43
2023-03-08T01:53:27.672Z,7.20
2023-03-08T01:55:55.214Z,6.43
2023-03-08T01:58:23.097Z,7.30
2023-03-08T02:00:50.207Z,6.53
2023-03-08T02:03:17.417Z,7.20
2023-03-08T02:05:44.666Z,7.17
2023-03-08T02:08:11.873Z,7.00
2023-03-08T02:10:39.100Z,7.50
2023-03-08T02:13:07.139Z,7.43
2023-03-08T02:15:34.291Z,7.00
2023-03-08T02:18:01.441Z,6.73
2023-03-08T02:20:32.751Z,7.80
2023-03-08T02:23:09.117Z,7.40
2023-03-08T02:25:36.268Z,7.17
2023-03-08T02:28:04.411Z,7.57
2023-03-08T02:30:33.014Z,7.13
2023-03-08T02:33:00.129Z,7.07
2023-03-08T02:35:27.380Z,8.20
2023-03-08T02:37:54.502Z,7.50
2023-03-08T02:40:21.745Z,7.23
2023-03-08T02:42:48.903Z,7.60
2023-03-08T02:45:16.127Z,6.97
2023-03-08T02:47:43.267Z,7.87
2023-03-08T02:50:10.704Z,7.73
2023-03-08T02:52:37.804Z,7.53
2023-03-08T02:55:05.137Z,7.33
2023-03-08T02:57:32.249Z,7.13
2023-03-08T02:59:59.384Z,8.07
2023-03-08T03:02:26.578Z,8.37
2023-03-08T03:04:53.717Z,7.50
2023-03-08T03:07:20.845Z,7.40
2023-03-08T03:09:48.040Z,7.53
2023-03-08T03:12:15.166Z,7.73
2023-03-08T03:14:42.338Z,7.17
2023-03-08T03:17:09.431Z,7.67
2023-03-08T03:19:37.904Z,8.60
2023-03-08T03:22:05.120Z,7.63
2023-03-08T03:24:32.217Z,7.90
2023-03-08T03:26:59.384Z,7.87
2023-03-08T03:29:26.552Z,8.27
2023-03-08T03:31:53.643Z,7.80
2023-03-08T03:34:20.807Z,7.90
2023-03-08T03:36:47.928Z,8.20
2023-03-08T03:39:15.071Z,7.33
2023-03-08T03:41:42.205Z,7.77
2023-03-08T03:44:09.301Z,7.50
2023-03-08T03:46:36.469Z,7.00
2023-03-08T03:49:03.645Z,7.90
2023-03-08T03:51:30.801Z,8.00
2023-03-08T03:53:58.680Z,8.50
2023-03-08T03:56:27.028Z,7.30
2023-03-08T03:58:54.498Z,7.37
2023-03-08T04:01:24.591Z,7.93
2023-03-08T04:03:52.265Z,8.13
2023-03-08T04:06:21.361Z,8.70
2023-03-08T04:08:48.585Z,8.33
2023-03-08T04:11:17.283Z,7.87
2023-03-08T04:13:44.781Z,7.90
2023-03-08T04:16:13.299Z,7.63
2023-03-08T04:18:40.581Z,7.80
2023-03-08T04:21:08.066Z,7.83
2023-03-08T04:23:35.309Z,9.03
2023-03-08T04:26:02.556Z,9.00
2023-03-08T04:28:29.933Z,8.80
2023-03-08T04:30:57.295Z,7.47
2023-03-08T04:33:24.798Z,8.10
2023-03-08T04:35:52.314Z,8.93
2023-03-08T04:38:19.584Z,8.30
2023-03-08T04:41:02.081Z,8.03
2023-03-08T04:43:29.605Z,8.27
2023-03-08T04:45:56.715Z,8.93
2023-03-08T04:48:26.355Z,8.83
2023-03-08T04:50:57.687Z,7.60
2023-03-08T04:53:25.313Z,8.17
2023-03-08T04:55:52.863Z,8.53
2023-03-08T04:58:20.169Z,8.27
2023-03-08T05:00:47.310Z,9.17
2023-03-08T05:03:14.715Z,8.97
2023-03-08T05:05:48.657Z,9.27
2023-03-08T05:08:15.946Z,8.37
2023-03-08T05:11:00.952Z,8.17
2023-03-08T05:13:29.214Z,8.50
2023-03-08T05:15:56.377Z,8.50
2023-03-08T05:18:23.533Z,8.87
2023-03-08T05:21:04.576Z,9.50
2023-03-08T05:23:31.975Z,8.57
2023-03-08T05:26:00.042Z,8.80
2023-03-08T05:28:28.991Z,9.07
2023-03-08T05:31:03.087Z,8.47
2023-03-08T05:33:30.605Z,9.03
2023-03-08T05:35:58.028Z,8.83
2023-03-08T05:38:25.724Z,8.20
2023-03-08T05:40:53.220Z,8.57
2023-03-08T05:43:20.402Z,8.83
2023-03-08T05:45:57.685Z,8.17
2023-03-08T05:48:25.106Z,8.70
2023-03-08T05:50:52.573Z,8.63
2023-03-08T05:53:19.791Z,8.80
2023-03-08T05:55:46.957Z,8.40
2023-03-08T05:58:14.194Z,8.40
2023-03-08T06:00:41.347Z,8.83
2023-03-08T06:03:08.528Z,8.33
2023-03-08T06:05:35.813Z,8.80
2023-03-08T06:08:02.936Z,9.37
2023-03-08T06:10:30.262Z,8.27
2023-03-08T06:12:57.372Z,8.27
2023-03-08T06:15:24.503Z,7.90
2023-03-08T06:17:54.790Z,8.73
2023-03-08T06:20:21.994Z,8.13
2023-03-08T06:22:49.216Z,8.10
2023-03-08T06:25:16.412Z,8.73
2023-03-08T06:27:43.522Z,8.63
2023-03-08T06:30:11.076Z,8.43
2023-03-08T06:32:38.359Z,9.07
2023-03-08T06:35:05.938Z,8.83
2023-03-08T06:37:34.319Z,9.17
2023-03-08T06:40:01.943Z,9.87
2023-03-08T06:42:40.620Z,9.03
2023-03-08T06:45:09.348Z,9.03
2023-03-08T06:47:36.486Z,8.83
2023-03-08T06:50:03.707Z,9.93
2023-03-08T06:52:37.501Z,10.17
2023-03-08T06:55:05.307Z,9.13
2023-03-08T06:57:32.419Z,9.00
2023-03-08T06:59:59.540Z,8.93
2023-03-08T07:02:26.700Z,9.50
2023-03-08T07:04:53.839Z,8.57
2023-03-08T07:07:21.008Z,9.17
2023-03-08T07:09:48.136Z,9.60
2023-03-08T07:12:15.438Z,7.90
2023-03-08T07:14:42.561Z,8.87
2023-03-08T07:17:09.705Z,9.53
2023-03-08T07:19:36.873Z,9.77
2023-03-08T07:22:03.995Z,9.37
2023-03-08T07:24:31.117Z,9.00
2023-03-08T07:26:58.216Z,9.10
2023-03-08T07:29:25.291Z,8.50
2023-03-08T07:31:52.452Z,9.13
2023-03-08T07:34:19.584Z,9.43
2023-03-08T07:36:46.704Z,9.73
2023-03-08T07:39:13.875Z,9.97
2023-03-08T07:41:40.992Z,10.33
2023-03-08T07:44:08.172Z,10.37
2023-03-08T07:46:35.433Z,9.30
2023-03-08T07:49:02.655Z,9.93
2023-03-08T07:51:29.870Z,10.23
2023-03-08T07:53:56.959Z,11.77
2023-03-08T07:56:24.117Z,9.67
2023-03-08T07:58:51.252Z,11.00
2023-03-08T08:01:18.342Z,10.10
2023-03-08T08:03:45.633Z,10.50
2023-03-08T08:06:12.829Z,9.53
2023-03-08T08:08:40.704Z,11.23
2023-03-08T08:11:11.607Z,9.00
2023-03-08T08:13:38.791Z,10.97
2023-03-08T08:16:07.173Z,11.10
2023-03-08T08:18:35.060Z,11.17
2023-03-08T08:21:06.366Z,10.70
2023-03-08T08:23:33.871Z,12.60
2023-03-08T08:26:01.068Z,11.27
2023-03-08T08:28:28.342Z,11.87
2023-03-08T08:31:21.903Z,11.10
2023-03-08T08:33:49.418Z,12.30
2023-03-08T08:36:17.964Z,12.13
2023-03-08T08:38:46.205Z,11.13
2023-03-08T08:41:15.389Z,11.90
2023-03-08T08:43:43.051Z,12.13
2023-03-08T08:46:10.690Z,12.47
2023-03-08T08:48:38.610Z,12.80
2023-03-08T08:51:06.641Z,13.50
2023-03-08T08:53:34.112Z,14.03
2023-03-08T08:56:23.737Z,14.70
2023-03-08T08:58:52.668Z,14.07
2023-03-08T09:01:21.108Z,14.67
2023-03-08T09:03:48.371Z,15.60
2023-03-08T09:06:16.249Z,14.40
2023-03-08T09:08:43.826Z,14.30
2023-03-08T09:11:11.268Z,14.77
2023-03-08T09:13:41.685Z,14.57
2023-03-08T09:16:18.082Z,14.20
2023-03-08T09:18:45.396Z,16.20
2023-03-08T09:21:12.559Z,15.10
2023-03-08T09:23:39.667Z,14.87
2023-03-08T09:26:06.913Z,14.60
2023-03-08T09:28:34.242Z,12.50
2023-03-08T09:31:03.154Z,13.33
2023-03-08T09:33:30.275Z,12.23
2023-03-08T09:36:01.151Z,12.73
2023-03-08T09:38:28.322Z,14.47
2023-03-08T09:41:07.462Z,14.97
2023-03-08T09:43:41.890Z,14.27
2023-03-08T09:46:12.900Z,15.97
2023-03-08T09:48:42.796Z,15.07
2023-03-08T09:51:11.664Z,13.60
2023-03-08T09:53:44.213Z,16.77
2023-03-08T09:56:28.431Z,15.70
2023-03-08T09:59:07.769Z,17.03
2023-03-08T10:01:53.294Z,14.57
2023-03-08T10:04:47.037Z,14.93
2023-03-08T10:07:15.459Z,16.03
2023-03-08T10:10:01.648Z,16.30
2023-03-08T10:12:33.653Z,17.73
2023-03-08T10:15:06.337Z,16.37
2023-03-08T10:17:50.307Z,16.17
2023-03-08T10:20:21.024Z,15.13
2023-03-08T10:22:52.298Z,15.53
2023-03-08T10:25:19.580Z,16.93
2023-03-08T10:27:48.423Z,16.17
2023-03-08T10:30:19.441Z,16.07
2023-03-08T10:32:48.031Z,14.47
2023-03-08T10:35:15.912Z,14.80
2023-03-08T10:37:43.057Z,13.93
2023-03-08T10:40:13.793Z,15.30
2023-03-08T10:42:43.618Z,14.30
2023-03-08T10:45:22.237Z,16.20
2023-03-08T10:47:59.820Z,15.10
2023-03-08T10:50:28.752Z,14.80
2023-03-08T10:52:55.947Z,15.80
2023-03-08T10:55:29.474Z,16.87
2023-03-08T10:57:58.012Z,16.53
2023-03-08T11:00:36.275Z,15.47
2023-03-08T11:03:15.067Z,17.50
2023-03-08T11:05:51.944Z,16.87
2023-03-08T11:08:20.742Z,19.17
2023-03-08T11:10:48.003Z,18.87
2023-03-08T11:13:26.067Z,18.13
2023-03-08T11:16:01.195Z,17.00
2023-03-08T11:18:35.482Z,16.43
2023-03-08T11:21:07.642Z,16.80
2023-03-08T11:23:40.324Z,16.67
2023-03-08T11:26:25.265Z,19.10
2023-03-08T11:29:12.856Z,18.70
2023-03-08T11:32:12.686Z,23.00
2023-03-08T11:34:39.887Z,16.97
2023-03-08T11:37:09.888Z,17.70
2023-03-08T11:39:47.755Z,16.83
2023-03-08T11:42:22.862Z,16.73
2023-03-08T11:44:55.005Z,16.67
2023-03-08T11:47:34.088Z,16.40
2023-03-08T11:50:19.824Z,17.33
2023-03-08T11:53:07.246Z,19.20
2023-03-08T11:55:43.559Z,17.20
2023-03-08T11:58:10.660Z,17.63
2023-03-08T12:00:39.668Z,16.80
2023-03-08T12:03:17.072Z,17.60
2023-03-08T12:05:52.464Z,16.13
2023-03-08T12:08:23.281Z,17.03
2023-03-08T12:10:56.800Z,18.00
2023-03-08T12:13:29.729Z,19.03
2023-03-08T12:16:03.017Z,18.67
2023-03-08T12:18:50.437Z,18.90
2023-03-08T12:21:28.584Z,19.03
2023-03-08T12:24:16.004Z,18.53
2023-03-08T12:26:52.362Z,17.57
2023-03-08T12:29:25.148Z,18.00
2023-03-08T12:31:52.678Z,19.37
2023-03-08T12:34:27.891Z,18.40
2023-03-08T12:36:55.384Z,21.93
2023-03-08T12:39:28.104Z,25.50
2023-03-08T12:41:59.173Z,22.37
2023-03-08T12:44:27.549Z,23.67
2023-03-08T12:47:03.333Z,21.03
2023-03-08T12:49:36.051Z,20.73
2023-03-08T12:52:26.303Z,20.93
2023-03-08T12:54:59.193Z,21.37
2023-03-08T12:57:29.477Z,22.40
2023-03-08T13:00:01.616Z,23.40
2023-03-08T13:02:33.085Z,25.07
2023-03-08T13:05:19.506Z,23.63
2023-03-08T13:07:58.054Z,33.33
2023-03-08T13:10:31.479Z,31.57
2023-03-08T13:13:04.897Z,23.67
2023-03-08T13:15:32.051Z,39.37
2023-03-08T13:18:03.821Z,34.17
2023-03-08T13:20:41.834Z,48.37
2023-03-08T13:23:18.960Z,30.67
2023-03-08T13:25:52.488Z,29.70
2023-03-08T13:28:20.961Z,30.30
2023-03-08T13:30:49.644Z,27.60
2023-03-08T13:33:20.355Z,32.90
2023-03-08T13:35:58.028Z,28.87
2023-03-08T13:38:26.194Z,26.87
2023-03-08T13:40:53.977Z,25.37
2023-03-08T13:43:25.305Z,24.47
2023-03-08T13:45:53.945Z,26.23
2023-03-08T13:48:22.233Z,24.90
2023-03-08T13:50:50.972Z,23.17
2023-03-08T13:53:22.825Z,23.30
2023-03-08T13:55:52.110Z,18.83
2023-03-08T13:58:19.245Z,16.97
2023-03-08T14:00:46.539Z,17.77
2023-03-08T14:03:20.494Z,17.20
2023-03-08T14:05:48.301Z,17.30
2023-03-08T14:08:24.916Z,17.73
2023-03-08T14:10:52.054Z,16.77
2023-03-08T14:13:21.362Z,15.83
2023-03-08T14:15:53.134Z,16.53
2023-03-08T14:18:22.461Z,16.87
2023-03-08T14:21:01.863Z,16.07
2023-03-08T14:23:29.260Z,18.57
2023-03-08T14:25:59.891Z,27.70
2023-03-08T14:28:40.795Z,27.07
2023-03-08T14:31:27.163Z,27.47
2023-03-08T14:33:58.439Z,28.37
2023-03-08T14:36:25.796Z,27.47
2023-03-08T14:38:53.027Z,24.23
2023-03-08T14:41:29.952Z,22.33
2023-03-08T14:43:57.319Z,25.03
2023-03-08T14:46:24.638Z,25.30
2023-03-08T14:49:02.842Z,24.83
2023-03-08T14:51:41.455Z,24.97
2023-03-08T14:54:29.275Z,24.07
2023-03-08T14:56:56.699Z,24.23
2023-03-08T14:59:27.808Z,27.20
2023-03-08T15:01:55.605Z,26.67
2023-03-08T15:04:24.790Z,24.23
2023-03-08T15:06:52.954Z,23.87
2023-03-08T15:09:21.850Z,23.90
2023-03-08T15:11:51.680Z,22.80
2023-03-08T15:14:18.798Z,23.47
2023-03-08T15:16:45.917Z,23.20
2023-03-08T15:19:13.951Z,22.57
2023-03-08T15:21:41.245Z,22.87
2023-03-08T15:24:11.406Z,20.27
2023-03-08T15:26:38.523Z,21.30
2023-03-08T15:29:06.563Z,21.13
2023-03-08T15:31:33.713Z,21.37
2023-03-08T15:34:01.566Z,21.03
2023-03-08T15:36:32.540Z,21.10
2023-03-08T15:39:01.299Z,21.17
2023-03-08T15:41:28.442Z,21.87
2023-03-08T15:43:55.603Z,20.57
2023-03-08T15:46:22.916Z,20.50
2023-03-08T15:48:51.199Z,22.70
2023-03-08T15:51:19.443Z,22.37
2023-03-08T15:53:46.883Z,22.93
2023-03-08T15:56:14.112Z,23.43
2023-03-08T15:58:41.306Z,22.73
2023-03-08T16:01:08.974Z,28.50
2023-03-08T16:03:36.199Z,30.40
2023-03-08T16:06:03.461Z,29.53
2023-03-08T16:08:30.766Z,29.53
2023-03-08T16:11:03.841Z,18.27
2023-03-08T16:13:31.541Z,13.53
2023-03-08T16:16:02.331Z,9.00
2023-03-08T16:18:30.319Z,11.37
2023-03-08T16:20:57.986Z,11.33
2023-03-08T16:23:25.612Z,11.37
2023-03-08T16:26:14.587Z,11.10
2023-03-08T16:28:43.623Z,10.63
2023-03-08T16:31:10.797Z,10.07
2023-03-08T16:33:37.993Z,9.67
2023-03-08T16:36:05.261Z,9.33
2023-03-08T16:38:32.757Z,9.30
2023-03-08T16:41:11.633Z,8.70
2023-03-08T16:43:46.290Z,7.40
2023-03-08T16:46:15.321Z,8.80
2023-03-08T16:48:42.494Z,8.77
2023-03-08T16:51:13.895Z,8.93
2023-03-08T16:53:41.061Z,8.70
2023-03-08T16:56:08.384Z,8.47
2023-03-08T16:58:35.564Z,9.00
2023-03-08T17:01:02.724Z,8.73
2023-03-08T17:03:29.885Z,8.47
2023-03-08T17:05:56.975Z,8.03
2023-03-08T17:08:24.087Z,7.70
2023-03-08T17:10:51.251Z,8.50
2023-03-08T17:13:18.405Z,8.53
2023-03-08T17:15:47.089Z,7.73
2023-03-08T17:18:14.690Z,8.63
2023-03-08T17:20:42.587Z,7.70
2023-03-08T17:23:10.703Z,7.97
2023-03-08T17:25:40.668Z,7.60
2023-03-08T17:28:08.572Z,8.00
2023-03-08T17:30:36.253Z,9.00
2023-03-08T17:33:03.391Z,7.37
2023-03-08T17:35:30.553Z,7.90
2023-03-08T17:37:57.964Z,7.63
2023-03-08T17:40:25.094Z,6.87
2023-03-08T17:42:52.326Z,6.87
2023-03-08T17:45:19.850Z,7.40
2023-03-08T17:47:47.045Z,6.93
2023-03-08T17:50:14.201Z,6.83
2023-03-08T17:52:41.717Z,6.97
2023-03-08T17:55:09.161Z,6.20
2023-03-08T17:57:36.939Z,6.30
2023-03-08T18:00:05.569Z,6.37
2023-03-08T18:02:33.268Z,6.60
2023-03-08T18:05:00.494Z,5.87
2023-03-08T18:07:29.058Z,5.90
2023-03-08T18:09:56.270Z,4.83
2023-03-08T18:12:23.743Z,3.97
2023-03-08T18:14:52.722Z,2.73
2023-03-08T18:17:20.846Z,2.53
2023-03-08T18:19:48.282Z,2.20
2023-03-08T18:22:15.733Z,1.50
2023-03-08T18:24:42.932Z,1.60
2023-03-08T18:27:10.053Z,1.50
2023-03-08T18:29:37.400Z,1.40
2023-03-08T18:32:05.069Z,1.50
2023-03-08T18:34:32.180Z,1.70
2023-03-08T18:36:59.574Z,1.63
2023-03-08T18:39:27.219Z,1.47
2023-03-08T18:41:56.839Z,1.30
2023-03-08T18:44:25.131Z,1.47
2023-03-08T18:46:52.319Z,1.37
2023-03-08T18:49:19.528Z,1.57
2023-03-08T18:51:46.902Z,1.90
2023-03-08T18:54:17.216Z,1.80
2023-03-08T18:56:44.966Z,1.90
2023-03-08T18:59:13.208Z,1.70
2023-03-08T19:01:40.816Z,1.50
2023-03-08T19:04:08.430Z,1.40
2023-03-08T19:06:36.157Z,1.80
2023-03-08T19:09:10.375Z,1.60
2023-03-08T19:11:37.827Z,1.20
2023-03-08T19:14:04.981Z,1.60
2023-03-08T19:16:33.632Z,1.30
2023-03-08T19:19:02.331Z,1.47
2023-03-08T19:21:31.087Z,1.50
2023-03-08T19:23:58.856Z,1.73
2023-03-08T19:26:36.338Z,1.70
2023-03-08T19:29:06.663Z,2.20
2023-03-08T19:31:35.454Z,5.70
2023-03-08T19:34:04.735Z,2.87
2023-03-08T19:36:32.876Z,2.07
2023-03-08T19:39:00.349Z,2.30
2023-03-08T19:41:27.786Z,2.40
2023-03-08T19:43:54.897Z,2.00
2023-03-08T19:46:22.327Z,2.20
2023-03-08T19:48:49.498Z,3.03
2023-03-08T19:51:17.605Z,2.10
2023-03-08T19:53:44.816Z,2.20
2023-03-08T19:56:19.458Z,2.10
2023-03-08T19:58:47.322Z,1.83
2023-03-08T20:01:17.154Z,1.60
2023-03-08T20:03:46.052Z,1.80
2023-03-08T20:06:14.270Z,1.73
2023-03-08T20:08:41.407Z,1.80
2023-03-08T20:11:08.546Z,1.73
2023-03-08T20:13:35.648Z,1.70
2023-03-08T20:16:02.764Z,1.80
2023-03-08T20:18:29.936Z,1.57
2023-03-08T20:20:58.923Z,1.60
2023-03-08T20:23:26.594Z,1.70
2023-03-08T20:25:53.716Z,1.67
2023-03-08T20:28:21.082Z,1.67
2023-03-08T20:30:48.554Z,1.60
2023-03-08T20:33:15.969Z,1.60
2023-03-08T20:35:43.405Z,1.70
2023-03-08T20:38:10.570Z,1.53
2023-03-08T20:40:39.626Z,1.30
2023-03-08T20:43:10.914Z,1.50
2023-03-08T20:45:40.270Z,1.60
2023-03-08T20:48:07.774Z,1.37
2023-03-08T20:50:34.887Z,1.20
2023-03-08T20:53:02.059Z,0.90
2023-03-08T20:55:29.152Z,0.93
2023-03-08T20:57:56.265Z,1.20
2023-03-08T21:00:25.406Z,1.10
2023-03-08T21:02:52.654Z,1.10
2023-03-08T21:05:19.779Z,1.00
2023-03-08T21:07:46.897Z,1.20
2023-03-08T21:10:14.019Z,0.90
2023-03-08T21:12:41.170Z,1.07
2023-03-08T21:15:08.557Z,0.90
2023-03-08T21:17:37.950Z,1.00
2023-03-08T21:20:05.778Z,1.10
2023-03-08T21:22:32.990Z,1.00
2023-03-08T21:25:00.143Z,1.00
2023-03-08T21:27:27.267Z,0.80
2023-03-08T21:29:57.323Z,0.80
2023-03-08T21:32:26.363Z,0.90
2023-03-08T21:34:54.960Z,0.97
2023-03-08T21:37:22.065Z,0.70
2023-03-08T21:39:49.183Z,0.90
2023-03-08T21:42:16.296Z,0.70
2023-03-08T21:44:43.454Z,0.73
2023-03-08T21:47:10.626Z,0.87
2023-03-08T21:49:37.765Z,0.93
2023-03-08T21:52:05.416Z,0.63
2023-03-08T21:54:32.844Z,0.87
2023-03-08T21:57:00.223Z,0.50
2023-03-08T21:59:28.813Z,0.60
2023-03-08T22:01:58.643Z,0.70
2023-03-08T22:04:26.215Z,0.93
2023-03-08T22:06:55.497Z,0.67
2023-03-08T22:09:23.078Z,0.60
2023-03-08T22:11:51.575Z,0.60
2023-03-08T22:14:18.820Z,0.70
2023-03-08T22:16:45.938Z,0.80
2023-03-08T22:19:13.032Z,0.93
2023-03-08T22:21:40.165Z,1.20
2023-03-08T22:24:07.543Z,1.40
2023-03-08T22:26:34.801Z,1.23
2023-03-08T22:29:02.051Z,1.00
2023-03-08T22:31:30.267Z,1.20
2023-03-08T22:33:57.982Z,1.00
2023-03-08T22:36:25.532Z,1.30
2023-03-08T22:38:52.713Z,1.40
2023-03-08T22:41:22.427Z,1.33
2023-03-08T22:43:50.057Z,1.40
2023-03-08T22:46:22.062Z,1.53
2023-03-08T22:48:49.557Z,1.10
2023-03-08T22:51:17.368Z,1.30
2023-03-08T22:53:44.560Z,1.40
2023-03-08T22:56:18.120Z,1.20
2023-03-08T22:58:45.285Z,1.30
2023-03-08T23:01:13.368Z,1.37
2023-03-08T23:03:40.489Z,1.50
2023-03-08T23:06:07.741Z,1.70
2023-03-08T23:08:34.950Z,1.50
2023-03-08T23:11:02.122Z,1.70
2023-03-08T23:13:34.143Z,1.80
2023-03-08T23:16:01.801Z,1.90
2023-03-08T23:18:29.266Z,1.73
2023-03-08T23:20:56.454Z,1.80
2023-03-08T23:23:25.124Z,1.97
2023-03-08T23:25:52.538Z,2.60
2023-03-08T23:28:20.488Z,2.47
2023-03-08T23:30:47.907Z,3.10
2023-03-08T23:33:15.039Z,3.77
2023-03-08T23:35:42.220Z,3.10
2023-03-08T23:38:09.345Z,3.67
2023-03-08T23:40:39.858Z,3.60
2023-03-08T23:43:07.370Z,4.47
2023-03-08T23:45:34.487Z,4.70
2023-03-08T23:48:03.383Z,5.17
2023-03-08T23:50:30.889Z,4.43
2023-03-08T23:52:58.022Z,4.90
2023-03-08T23:55:25.159Z,6.30
2023-03-08T23:57:52.269Z,6.30
